sensor_id;sensor_type;location;lat;lon;timestamp;pressure;altitude;pressure_sealevel;temperature;humidity
74631;BME280;63138;55.082;38.804;2023-05-14T00:02:47;100339.59;;;11.31;57.76
74631;BME280;63138;55.082;38.804;2023-05-14T00:05:13;100340.44;;;11.23;57.68
74631;BME280;63138;55.082;38.804;2023-05-14T00:07:39;100344.22;;;11.22;57.56
74631;BME280;63138;55.082;38.804;2023-05-14T00:10:06;100340.47;;;11.15;58.19
74631;BME280;63138;55.082;38.804;2023-05-14T00:12:32;100346.25;;;11.12;58.09
74631;BME280;63138;55.082;38.804;2023-05-14T00:14:58;100351.84;;;11.10;57.87
74631;BME280;63138;55.082;38.804;2023-05-14T00:17:24;100355.06;;;11.05;58.33
74631;BME280;63138;55.082;38.804;2023-05-14T00:19:50;100349.81;;;11.04;58.74
74631;BME280;63138;55.082;38.804;2023-05-14T00:22:16;100353.03;;;10.99;58.68
74631;BME280;63138;55.082;38.804;2023-05-14T00:24:41;100358.97;;;10.95;59.17
74631;BME280;63138;55.082;38.804;2023-05-14T00:27:07;100360.50;;;10.89;59.03
74631;BME280;63138;55.082;38.804;2023-05-14T00:29:34;100356.41;;;10.85;59.27
74631;BME280;63138;55.082;38.804;2023-05-14T00:32:01;100358.63;;;10.81;59.52
74631;BME280;63138;55.082;38.804;2023-05-14T00:34:27;100361.84;;;10.77;59.91
74631;BME280;63138;55.082;38.804;2023-05-14T00:36:53;100350.81;;;10.70;60.08
74631;BME280;63138;55.082;38.804;2023-05-14T00:39:18;100355.72;;;10.66;60.07
74631;BME280;63138;55.082;38.804;2023-05-14T00:41:44;100353.50;;;10.62;60.20
74631;BME280;63138;55.082;38.804;2023-05-14T00:44:10;100349.59;;;10.56;60.46
74631;BME280;63138;55.082;38.804;2023-05-14T00:46:36;100358.25;;;10.51;60.87
74631;BME280;63138;55.082;38.804;2023-05-14T00:49:02;100352.31;;;10.48;60.80
74631;BME280;63138;55.082;38.804;2023-05-14T00:51:28;100352.63;;;10.45;61.13
74631;BME280;63138;55.082;38.804;2023-05-14T00:53:54;100360.56;;;10.38;61.48
74631;BME280;63138;55.082;38.804;2023-05-14T00:56:20;100356.00;;;10.39;61.33
74631;BME280;63138;55.082;38.804;2023-05-14T00:58:46;100359.06;;;10.36;61.51
74631;BME280;63138;55.082;38.804;2023-05-14T01:01:12;100360.38;;;10.31;61.70
74631;BME280;63138;55.082;38.804;2023-05-14T01:03:40;100358.97;;;10.27;61.70
74631;BME280;63138;55.082;38.804;2023-05-14T01:06:23;100360.00;;;10.26;62.10
74631;BME280;63138;55.082;38.804;2023-05-14T01:16:45;100378.25;;;10.08;62.71
74631;BME280;63138;55.082;38.804;2023-05-14T01:19:49;100379.75;;;10.02;63.29
74631;BME280;63138;55.082;38.804;2023-05-14T01:22:18;100386.69;;;9.97;63.44
74631;BME280;63138;55.082;38.804;2023-05-14T01:24:43;100385.31;;;9.92;63.60
74631;BME280;63138;55.082;38.804;2023-05-14T01:27:24;100381.91;;;9.90;63.74
74631;BME280;63138;55.082;38.804;2023-05-14T01:30:13;100382.91;;;9.89;63.71
74631;BME280;63138;55.082;38.804;2023-05-14T01:32:43;100387.66;;;9.87;63.84
74631;BME280;63138;55.082;38.804;2023-05-14T01:35:11;100388.19;;;9.91;63.56
74631;BME280;63138;55.082;38.804;2023-05-14T01:37:39;100387.00;;;9.93;63.44
74631;BME280;63138;55.082;38.804;2023-05-14T01:40:09;100393.81;;;9.98;63.22
74631;BME280;63138;55.082;38.804;2023-05-14T01:42:37;100388.03;;;9.92;63.61
74631;BME280;63138;55.082;38.804;2023-05-14T01:45:04;100391.78;;;10.00;63.61
74631;BME280;63138;55.082;38.804;2023-05-14T01:47:31;100389.97;;;10.08;63.20
74631;BME280;63138;55.082;38.804;2023-05-14T01:49:56;100397.22;;;10.00;63.35
74631;BME280;63138;55.082;38.804;2023-05-14T01:52:23;100388.38;;;9.98;63.70
74631;BME280;63138;55.082;38.804;2023-05-14T01:54:48;100386.00;;;10.03;63.34
74631;BME280;63138;55.082;38.804;2023-05-14T01:57:14;100382.38;;;10.20;62.88
74631;BME280;63138;55.082;38.804;2023-05-14T01:59:40;100394.72;;;10.49;61.92
74631;BME280;63138;55.082;38.804;2023-05-14T02:02:06;100398.31;;;10.66;61.08
74631;BME280;63138;55.082;38.804;2023-05-14T02:04:32;100399.34;;;10.73;60.67
74631;BME280;63138;55.082;38.804;2023-05-14T02:06:58;100391.75;;;10.85;60.58
74631;BME280;63138;55.082;38.804;2023-05-14T02:09:25;100406.03;;;10.95;60.02
74631;BME280;63138;55.082;38.804;2023-05-14T02:11:50;100405.53;;;11.08;59.40
74631;BME280;63138;55.082;38.804;2023-05-14T02:14:17;100404.00;;;11.22;59.05
74631;BME280;63138;55.082;38.804;2023-05-14T02:16:43;100405.00;;;11.54;58.03
74631;BME280;63138;55.082;38.804;2023-05-14T02:19:09;100398.69;;;11.78;57.36
74631;BME280;63138;55.082;38.804;2023-05-14T02:21:55;100410.19;;;11.88;56.81
74631;BME280;63138;55.082;38.804;2023-05-14T02:24:21;100397.78;;;11.94;56.39
74631;BME280;63138;55.082;38.804;2023-05-14T02:26:47;100413.09;;;12.03;55.90
74631;BME280;63138;55.082;38.804;2023-05-14T02:29:13;100408.66;;;12.10;56.08
74631;BME280;63138;55.082;38.804;2023-05-14T02:31:39;100410.34;;;12.11;56.08
74631;BME280;63138;55.082;38.804;2023-05-14T02:34:05;100404.97;;;12.34;55.10
74631;BME280;63138;55.082;38.804;2023-05-14T02:36:31;100411.91;;;12.45;54.74
74631;BME280;63138;55.082;38.804;2023-05-14T02:38:58;100401.09;;;12.60;54.48
74631;BME280;63138;55.082;38.804;2023-05-14T02:41:26;100403.22;;;12.73;54.12
74631;BME280;63138;55.082;38.804;2023-05-14T02:43:52;100417.19;;;13.01;53.25
74631;BME280;63138;55.082;38.804;2023-05-14T02:46:20;100412.22;;;13.28;52.35
74631;BME280;63138;55.082;38.804;2023-05-14T02:48:46;100415.69;;;13.45;51.65
74631;BME280;63138;55.082;38.804;2023-05-14T02:51:12;100419.63;;;13.42;51.84
74631;BME280;63138;55.082;38.804;2023-05-14T02:53:38;100428.59;;;13.51;51.63
74631;BME280;63138;55.082;38.804;2023-05-14T02:56:04;100428.34;;;13.61;51.42
74631;BME280;63138;55.082;38.804;2023-05-14T02:58:30;100421.59;;;13.86;50.62
74631;BME280;63138;55.082;38.804;2023-05-14T03:00:56;100427.38;;;13.53;51.41
74631;BME280;63138;55.082;38.804;2023-05-14T03:03:22;100438.03;;;12.94;52.90
74631;BME280;63138;55.082;38.804;2023-05-14T03:05:47;100434.41;;;12.39;54.68
74631;BME280;63138;55.082;38.804;2023-05-14T03:08:13;100431.09;;;12.12;56.12
74631;BME280;63138;55.082;38.804;2023-05-14T03:10:39;100441.34;;;11.85;57.17
74631;BME280;63138;55.082;38.804;2023-05-14T03:13:05;100434.75;;;11.55;58.32
74631;BME280;63138;55.082;38.804;2023-05-14T03:15:31;100443.09;;;11.45;58.96
74631;BME280;63138;55.082;38.804;2023-05-14T03:17:57;100440.00;;;11.32;59.51
74631;BME280;63138;55.082;38.804;2023-05-14T03:20:23;100447.13;;;11.25;59.72
74631;BME280;63138;55.082;38.804;2023-05-14T03:22:49;100443.41;;;11.18;60.40
74631;BME280;63138;55.082;38.804;2023-05-14T03:25:15;100452.56;;;11.08;60.80
74631;BME280;63138;55.082;38.804;2023-05-14T03:27:40;100450.00;;;11.07;61.13
74631;BME280;63138;55.082;38.804;2023-05-14T03:30:07;100449.16;;;10.98;61.21
74631;BME280;63138;55.082;38.804;2023-05-14T03:32:33;100454.94;;;10.95;61.77
74631;BME280;63138;55.082;38.804;2023-05-14T03:34:59;100447.81;;;11.02;61.71
74631;BME280;63138;55.082;38.804;2023-05-14T03:37:25;100449.16;;;11.06;61.77
74631;BME280;63138;55.082;38.804;2023-05-14T03:39:50;100450.00;;;11.07;61.79
74631;BME280;63138;55.082;38.804;2023-05-14T03:42:16;100456.63;;;11.13;61.48
74631;BME280;63138;55.082;38.804;2023-05-14T03:44:42;100467.53;;;11.21;61.57
74631;BME280;63138;55.082;38.804;2023-05-14T03:47:08;100454.09;;;11.19;61.76
74631;BME280;63138;55.082;38.804;2023-05-14T03:49:34;100461.25;;;11.20;61.56
74631;BME280;63138;55.082;38.804;2023-05-14T03:52:00;100454.28;;;11.26;61.61
74631;BME280;63138;55.082;38.804;2023-05-14T03:54:26;100472.16;;;11.37;60.96
74631;BME280;63138;55.082;38.804;2023-05-14T03:56:52;100459.22;;;11.55;60.36
74631;BME280;63138;55.082;38.804;2023-05-14T03:59:18;100460.44;;;11.53;60.08
74631;BME280;63138;55.082;38.804;2023-05-14T04:01:43;100469.25;;;11.55;60.13
74631;BME280;63138;55.082;38.804;2023-05-14T04:04:09;100458.88;;;11.58;60.14
74631;BME280;63138;55.082;38.804;2023-05-14T04:06:35;100468.56;;;11.61;60.20
74631;BME280;63138;55.082;38.804;2023-05-14T04:09:02;100473.47;;;11.74;59.69
74631;BME280;63138;55.082;38.804;2023-05-14T04:11:28;100478.25;;;11.80;60.00
74631;BME280;63138;55.082;38.804;2023-05-14T04:13:54;100478.25;;;11.80;59.40
74631;BME280;63138;55.082;38.804;2023-05-14T04:16:21;100476.53;;;11.87;59.20
74631;BME280;63138;55.082;38.804;2023-05-14T04:18:47;100480.31;;;11.94;58.77
74631;BME280;63138;55.082;38.804;2023-05-14T04:21:14;100476.03;;;11.92;58.92
74631;BME280;63138;55.082;38.804;2023-05-14T04:23:40;100480.97;;;11.96;58.54
74631;BME280;63138;55.082;38.804;2023-05-14T04:26:05;100484.53;;;12.05;58.46
74631;BME280;63138;55.082;38.804;2023-05-14T04:28:31;100482.16;;;12.10;58.04
74631;BME280;63138;55.082;38.804;2023-05-14T04:30:57;100483.16;;;12.17;58.01
74631;BME280;63138;55.082;38.804;2023-05-14T04:33:23;100481.94;;;12.12;57.92
74631;BME280;63138;55.082;38.804;2023-05-14T04:35:49;100471.22;;;12.27;57.76
74631;BME280;63138;55.082;38.804;2023-05-14T04:38:16;100477.28;;;12.37;57.62
74631;BME280;63138;55.082;38.804;2023-05-14T04:40:42;100484.06;;;12.49;57.68
74631;BME280;63138;55.082;38.804;2023-05-14T04:43:08;100481.97;;;12.59;57.06
74631;BME280;63138;55.082;38.804;2023-05-14T04:45:34;100479.34;;;12.74;56.49
74631;BME280;63138;55.082;38.804;2023-05-14T04:48:00;100483.34;;;12.95;56.60
74631;BME280;63138;55.082;38.804;2023-05-14T04:50:26;100481.78;;;13.00;56.31
74631;BME280;63138;55.082;38.804;2023-05-14T04:52:51;100482.47;;;13.26;55.71
74631;BME280;63138;55.082;38.804;2023-05-14T04:55:17;100486.06;;;13.72;53.76
74631;BME280;63138;55.082;38.804;2023-05-14T04:57:44;100483.88;;;13.68;54.13
74631;BME280;63138;55.082;38.804;2023-05-14T05:00:10;100477.06;;;13.87;53.38
74631;BME280;63138;55.082;38.804;2023-05-14T05:02:55;100480.22;;;14.13;52.94
74631;BME280;63138;55.082;38.804;2023-05-14T05:05:40;100483.41;;;14.32;52.56
74631;BME280;63138;55.082;38.804;2023-05-14T05:08:06;100478.53;;;14.42;52.26
74631;BME280;63138;55.082;38.804;2023-05-14T05:10:32;100472.25;;;14.78;51.21
74631;BME280;63138;55.082;38.804;2023-05-14T05:12:58;100477.75;;;15.58;49.21
74631;BME280;63138;55.082;38.804;2023-05-14T05:15:24;100480.97;;;15.83;48.33
74631;BME280;63138;55.082;38.804;2023-05-14T05:18:09;100483.88;;;15.60;48.58
74631;BME280;63138;55.082;38.804;2023-05-14T05:20:35;100483.28;;;15.43;48.92
74631;BME280;63138;55.082;38.804;2023-05-14T05:23:01;100489.16;;;15.61;48.78
74631;BME280;63138;55.082;38.804;2023-05-14T05:25:27;100481.72;;;15.55;48.79
74631;BME280;63138;55.082;38.804;2023-05-14T05:27:52;100485.38;;;15.41;49.04
74631;BME280;63138;55.082;38.804;2023-05-14T05:30:18;100483.50;;;15.20;49.88
74631;BME280;63138;55.082;38.804;2023-05-14T05:32:44;100493.66;;;14.89;50.41
74631;BME280;63138;55.082;38.804;2023-05-14T05:35:10;100496.03;;;14.78;50.96
74631;BME280;63138;55.082;38.804;2023-05-14T05:37:37;100503.66;;;14.82;50.91
74631;BME280;63138;55.082;38.804;2023-05-14T05:40:03;100494.34;;;14.77;50.61
74631;BME280;63138;55.082;38.804;2023-05-14T05:42:30;100502.78;;;14.82;51.00
74631;BME280;63138;55.082;38.804;2023-05-14T05:44:56;100502.97;;;14.95;50.57
74631;BME280;63138;55.082;38.804;2023-05-14T05:47:22;100499.31;;;14.88;50.65
74631;BME280;63138;55.082;38.804;2023-05-14T05:49:48;100501.69;;;14.76;51.16
74631;BME280;63138;55.082;38.804;2023-05-14T05:52:13;100502.16;;;14.95;50.57
74631;BME280;63138;55.082;38.804;2023-05-14T05:54:39;100495.66;;;15.17;50.10
74631;BME280;63138;55.082;38.804;2023-05-14T05:57:05;100491.09;;;15.24;50.18
74631;BME280;63138;55.082;38.804;2023-05-14T05:59:31;100489.44;;;15.66;48.87
74631;BME280;63138;55.082;38.804;2023-05-14T06:01:58;100491.75;;;15.70;48.60
74631;BME280;63138;55.082;38.804;2023-05-14T06:07:08;100500.69;;;16.70;46.56
74631;BME280;63138;55.082;38.804;2023-05-14T06:09:52;100496.84;;;16.57;46.77
74631;BME280;63138;55.082;38.804;2023-05-14T06:12:18;100494.78;;;16.31;47.09
74631;BME280;63138;55.082;38.804;2023-05-14T06:14:44;100495.06;;;17.46;44.74
74631;BME280;63138;55.082;38.804;2023-05-14T06:17:10;100489.38;;;18.34;42.59
74631;BME280;63138;55.082;38.804;2023-05-14T06:20:01;100488.66;;;18.66;41.17
74631;BME280;63138;55.082;38.804;2023-05-14T06:22:29;100481.94;;;19.45;39.40
74631;BME280;63138;55.082;38.804;2023-05-14T06:24:54;100488.63;;;20.13;38.33
74631;BME280;63138;55.082;38.804;2023-05-14T06:27:22;100492.78;;;20.22;37.93
74631;BME280;63138;55.082;38.804;2023-05-14T06:32:33;100486.75;;;21.36;35.92
74631;BME280;63138;55.082;38.804;2023-05-14T06:35:18;100480.34;;;21.24;36.06
74631;BME280;63138;55.082;38.804;2023-05-14T06:37:45;100476.63;;;21.61;34.94
74631;BME280;63138;55.082;38.804;2023-05-14T06:40:12;100475.25;;;22.64;33.51
74631;BME280;63138;55.082;38.804;2023-05-14T06:42:40;100468.88;;;22.64;31.54
74631;BME280;63138;55.082;38.804;2023-05-14T06:45:08;100484.06;;;22.49;30.48
74631;BME280;63138;55.082;38.804;2023-05-14T06:47:34;100476.72;;;22.08;30.52
74631;BME280;63138;55.082;38.804;2023-05-14T06:50:00;100477.53;;;22.08;30.62
74631;BME280;63138;55.082;38.804;2023-05-14T06:52:28;100466.63;;;22.89;29.84
74631;BME280;63138;55.082;38.804;2023-05-14T06:54:54;100471.84;;;23.43;28.88
74631;BME280;63138;55.082;38.804;2023-05-14T06:57:19;100467.13;;;23.44;28.55
74631;BME280;63138;55.082;38.804;2023-05-14T06:59:45;100475.13;;;23.40;28.52
74631;BME280;63138;55.082;38.804;2023-05-14T07:02:11;100462.97;;;23.01;29.09
74631;BME280;63138;55.082;38.804;2023-05-14T07:04:37;100472.47;;;22.52;29.71
74631;BME280;63138;55.082;38.804;2023-05-14T07:07:03;100474.81;;;22.44;29.48
74631;BME280;63138;55.082;38.804;2023-05-14T07:09:30;100476.13;;;22.94;28.95
74631;BME280;63138;55.082;38.804;2023-05-14T07:11:56;100475.28;;;23.05;29.25
74631;BME280;63138;55.082;38.804;2023-05-14T07:14:21;100462.81;;;23.19;28.27
74631;BME280;63138;55.082;38.804;2023-05-14T07:16:47;100475.06;;;22.83;29.01
74631;BME280;63138;55.082;38.804;2023-05-14T07:19:13;100478.13;;;23.10;28.42
74631;BME280;63138;55.082;38.804;2023-05-14T07:21:40;100489.22;;;22.22;28.89
74631;BME280;63138;55.082;38.804;2023-05-14T07:24:07;100476.56;;;21.91;28.82
74631;BME280;63138;55.082;38.804;2023-05-14T07:26:32;100489.22;;;21.26;29.78
74631;BME280;63138;55.082;38.804;2023-05-14T07:28:59;100485.78;;;21.61;30.04
74631;BME280;63138;55.082;38.804;2023-05-14T07:31:25;100483.69;;;21.99;29.17
74631;BME280;63138;55.082;38.804;2023-05-14T07:33:51;100499.50;;;20.70;30.86
74631;BME280;63138;55.082;38.804;2023-05-14T07:36:17;100488.31;;;19.78;32.28
74631;BME280;63138;55.082;38.804;2023-05-14T07:38:42;100495.56;;;19.65;32.28
74631;BME280;63138;55.082;38.804;2023-05-14T07:41:10;100503.94;;;20.53;30.70
74631;BME280;63138;55.082;38.804;2023-05-14T07:43:36;100494.97;;;21.25;29.55
74631;BME280;63138;55.082;38.804;2023-05-14T07:46:05;100495.31;;;21.89;29.37
74631;BME280;63138;55.082;38.804;2023-05-14T07:48:31;100492.72;;;21.52;30.07
74631;BME280;63138;55.082;38.804;2023-05-14T07:51:15;100497.00;;;21.17;30.23
74631;BME280;63138;55.082;38.804;2023-05-14T07:53:41;100495.13;;;20.44;30.96
74631;BME280;63138;55.082;38.804;2023-05-14T07:56:07;100493.38;;;20.06;31.44
74631;BME280;63138;55.082;38.804;2023-05-14T07:58:35;100497.28;;;19.28;32.62
74631;BME280;63138;55.082;38.804;2023-05-14T08:01:00;100497.50;;;19.26;32.99
74631;BME280;63138;55.082;38.804;2023-05-14T08:03:28;100500.97;;;19.54;32.53
74631;BME280;63138;55.082;38.804;2023-05-14T08:05:55;100502.91;;;19.78;31.97
74631;BME280;63138;55.082;38.804;2023-05-14T08:08:23;100502.25;;;19.13;32.63
74631;BME280;63138;55.082;38.804;2023-05-14T08:10:49;100517.56;;;18.95;32.85
74631;BME280;63138;55.082;38.804;2023-05-14T08:13:16;100505.09;;;20.20;30.87
74631;BME280;63138;55.082;38.804;2023-05-14T08:15:41;100506.91;;;21.07;30.13
74631;BME280;63138;55.082;38.804;2023-05-14T08:18:07;100503.56;;;20.86;30.02
74631;BME280;63138;55.082;38.804;2023-05-14T08:20:33;100497.44;;;19.72;31.33
74631;BME280;63138;55.082;38.804;2023-05-14T08:22:59;100501.78;;;19.16;32.00
74631;BME280;63138;55.082;38.804;2023-05-14T08:25:28;100504.28;;;18.85;32.31
74631;BME280;63138;55.082;38.804;2023-05-14T08:27:54;100504.34;;;19.17;31.58
74631;BME280;63138;55.082;38.804;2023-05-14T08:30:20;100497.91;;;19.94;30.46
74631;BME280;63138;55.082;38.804;2023-05-14T08:32:47;100501.50;;;20.19;29.19
74631;BME280;63138;55.082;38.804;2023-05-14T08:35:13;100496.84;;;20.64;28.76
74631;BME280;63138;55.082;38.804;2023-05-14T08:37:38;100484.47;;;20.48;28.23
74631;BME280;63138;55.082;38.804;2023-05-14T08:40:05;100503.44;;;20.56;28.29
74631;BME280;63138;55.082;38.804;2023-05-14T08:42:33;100504.50;;;20.80;27.78
74631;BME280;63138;55.082;38.804;2023-05-14T08:45:01;100501.38;;;21.07;27.75
74631;BME280;63138;55.082;38.804;2023-05-14T08:47:55;100497.94;;;21.84;26.96
74631;BME280;63138;55.082;38.804;2023-05-14T08:50:22;100481.59;;;21.70;26.87
74631;BME280;63138;55.082;38.804;2023-05-14T08:52:49;100480.03;;;21.74;26.96
74631;BME280;63138;55.082;38.804;2023-05-14T08:55:14;100495.75;;;20.65;28.76
74631;BME280;63138;55.082;38.804;2023-05-14T08:57:41;100491.75;;;20.79;28.04
74631;BME280;63138;55.082;38.804;2023-05-14T09:00:07;100486.75;;;21.06;28.46
74631;BME280;63138;55.082;38.804;2023-05-14T09:02:34;100498.81;;;20.75;28.51
74631;BME280;63138;55.082;38.804;2023-05-14T09:05:01;100498.00;;;21.23;27.09
74631;BME280;63138;55.082;38.804;2023-05-14T09:07:30;100487.81;;;21.54;27.26
74631;BME280;63138;55.082;38.804;2023-05-14T09:09:58;100497.59;;;20.89;27.55
74631;BME280;63138;55.082;38.804;2023-05-14T09:12:24;100494.84;;;20.89;27.83
74631;BME280;63138;55.082;38.804;2023-05-14T09:14:50;100491.81;;;21.09;27.39
74631;BME280;63138;55.082;38.804;2023-05-14T09:17:17;100485.09;;;21.17;27.78
74631;BME280;63138;55.082;38.804;2023-05-14T09:19:44;100497.72;;;21.13;27.63
74631;BME280;63138;55.082;38.804;2023-05-14T09:22:15;100490.16;;;20.53;28.05
74631;BME280;63138;55.082;38.804;2023-05-14T09:24:42;100492.00;;;20.15;28.79
74631;BME280;63138;55.082;38.804;2023-05-14T09:27:10;100493.22;;;20.19;29.67
74631;BME280;63138;55.082;38.804;2023-05-14T09:29:40;100495.34;;;20.42;29.66
74631;BME280;63138;55.082;38.804;2023-05-14T09:32:06;100484.28;;;20.68;28.59
74631;BME280;63138;55.082;38.804;2023-05-14T09:34:35;100493.63;;;20.23;29.09
74631;BME280;63138;55.082;38.804;2023-05-14T09:37:03;100484.94;;;19.69;30.13
74631;BME280;63138;55.082;38.804;2023-05-14T09:39:30;100491.63;;;19.55;29.79
74631;BME280;63138;55.082;38.804;2023-05-14T09:41:57;100491.53;;;19.36;30.30
74631;BME280;63138;55.082;38.804;2023-05-14T09:44:24;100492.69;;;19.22;29.92
74631;BME280;63138;55.082;38.804;2023-05-14T09:46:51;100488.75;;;18.98;30.34
74631;BME280;63138;55.082;38.804;2023-05-14T09:49:17;100487.25;;;19.72;29.58
74631;BME280;63138;55.082;38.804;2023-05-14T09:51:43;100476.59;;;19.82;29.33
74631;BME280;63138;55.082;38.804;2023-05-14T09:54:09;100464.97;;;19.17;30.72
74631;BME280;63138;55.082;38.804;2023-05-14T09:56:36;100476.97;;;18.77;31.02
74631;BME280;63138;55.082;38.804;2023-05-14T09:59:03;100471.75;;;18.62;31.36
74631;BME280;63138;55.082;38.804;2023-05-14T10:01:54;100473.25;;;18.51;31.53
74631;BME280;63138;55.082;38.804;2023-05-14T10:04:20;100476.50;;;18.94;30.62
74631;BME280;63138;55.082;38.804;2023-05-14T10:06:50;100479.38;;;19.51;29.96
74631;BME280;63138;55.082;38.804;2023-05-14T10:09:18;100459.50;;;19.42;29.40
74631;BME280;63138;55.082;38.804;2023-05-14T10:11:51;100472.94;;;19.57;28.66
74631;BME280;63138;55.082;38.804;2023-05-14T10:14:35;100465.31;;;20.09;27.55
74631;BME280;63138;55.082;38.804;2023-05-14T10:17:04;100466.19;;;20.10;27.95
74631;BME280;63138;55.082;38.804;2023-05-14T10:19:33;100462.41;;;19.79;28.96
74631;BME280;63138;55.082;38.804;2023-05-14T10:22:06;100458.69;;;19.41;29.94
74631;BME280;63138;55.082;38.804;2023-05-14T10:24:34;100466.19;;;18.89;30.70
74631;BME280;63138;55.082;38.804;2023-05-14T10:27:01;100479.81;;;18.50;31.58
74631;BME280;63138;55.082;38.804;2023-05-14T10:29:34;100464.81;;;18.40;31.94
74631;BME280;63138;55.082;38.804;2023-05-14T10:32:06;100467.50;;;18.60;31.40
74631;BME280;63138;55.082;38.804;2023-05-14T10:34:39;100459.16;;;18.93;31.05
74631;BME280;63138;55.082;38.804;2023-05-14T10:37:20;100458.56;;;19.23;30.22
74631;BME280;63138;55.082;38.804;2023-05-14T10:39:50;100474.59;;;18.94;30.07
74631;BME280;63138;55.082;38.804;2023-05-14T10:44:52;100470.47;;;18.65;31.33
74631;BME280;63138;55.082;38.804;2023-05-14T10:47:19;100465.38;;;18.82;31.02
74631;BME280;63138;55.082;38.804;2023-05-14T10:49:46;100468.44;;;18.99;30.17
74631;BME280;63138;55.082;38.804;2023-05-14T10:52:17;100465.31;;;18.88;29.81
74631;BME280;63138;55.082;38.804;2023-05-14T10:55:06;100461.94;;;18.80;29.55
74631;BME280;63138;55.082;38.804;2023-05-14T10:57:38;100459.94;;;18.55;30.30
74631;BME280;63138;55.082;38.804;2023-05-14T11:00:05;100468.41;;;18.47;30.56
74631;BME280;63138;55.082;38.804;2023-05-14T11:02:36;100464.66;;;18.14;31.73
74631;BME280;63138;55.082;38.804;2023-05-14T11:07:46;100456.25;;;17.89;31.65
74631;BME280;63138;55.082;38.804;2023-05-14T11:10:19;100456.56;;;18.46;30.66
74631;BME280;63138;55.082;38.804;2023-05-14T11:12:48;100460.69;;;18.89;30.05
74631;BME280;63138;55.082;38.804;2023-05-14T11:15:18;100455.16;;;19.27;29.51
74631;BME280;63138;55.082;38.804;2023-05-14T11:17:45;100456.78;;;19.03;29.89
74631;BME280;63138;55.082;38.804;2023-05-14T11:20:12;100453.34;;;18.56;31.22
74631;BME280;63138;55.082;38.804;2023-05-14T11:22:40;100464.25;;;18.24;31.57
74631;BME280;63138;55.082;38.804;2023-05-14T11:25:09;100458.34;;;18.21;31.54
74631;BME280;63138;55.082;38.804;2023-05-14T11:27:37;100451.75;;;18.35;31.43
74631;BME280;63138;55.082;38.804;2023-05-14T11:30:04;100457.41;;;18.47;31.32
74631;BME280;63138;55.082;38.804;2023-05-14T11:32:34;100445.78;;;18.45;30.86
74631;BME280;63138;55.082;38.804;2023-05-14T11:35:02;100458.19;;;18.67;30.29
74631;BME280;63138;55.082;38.804;2023-05-14T11:37:30;100447.72;;;18.96;30.07
74631;BME280;63138;55.082;38.804;2023-05-14T11:39:59;100449.34;;;19.10;29.85
74631;BME280;63138;55.082;38.804;2023-05-14T11:42:25;100444.00;;;19.16;30.07
74631;BME280;63138;55.082;38.804;2023-05-14T11:44:52;100457.94;;;19.21;30.48
74631;BME280;63138;55.082;38.804;2023-05-14T11:47:20;100443.66;;;19.05;30.79
74631;BME280;63138;55.082;38.804;2023-05-14T11:50:05;100448.19;;;18.86;31.39
74631;BME280;63138;55.082;38.804;2023-05-14T11:52:36;100455.91;;;19.09;30.86
74631;BME280;63138;55.082;38.804;2023-05-14T11:55:03;100451.94;;;18.99;30.68
74631;BME280;63138;55.082;38.804;2023-05-14T11:57:31;100425.31;;;18.93;30.17
74631;BME280;63138;55.082;38.804;2023-05-14T11:59:56;100450.75;;;18.81;30.10
74631;BME280;63138;55.082;38.804;2023-05-14T12:02:25;100446.75;;;18.70;29.74
74631;BME280;63138;55.082;38.804;2023-05-14T12:04:54;100457.66;;;18.97;30.13
74631;BME280;63138;55.082;38.804;2023-05-14T12:07:21;100453.38;;;19.40;29.95
74631;BME280;63138;55.082;38.804;2023-05-14T12:12:35;100462.97;;;18.92;31.08
74631;BME280;63138;55.082;38.804;2023-05-14T12:15:08;100450.53;;;18.76;31.15
74631;BME280;63138;55.082;38.804;2023-05-14T12:17:37;100449.56;;;19.09;31.08
74631;BME280;63138;55.082;38.804;2023-05-14T12:20:07;100433.16;;;18.89;31.10
74631;BME280;63138;55.082;38.804;2023-05-14T12:22:37;100449.41;;;18.97;30.85
74631;BME280;63138;55.082;38.804;2023-05-14T12:25:10;100438.78;;;19.01;31.14
74631;BME280;63138;55.082;38.804;2023-05-14T12:27:38;100446.50;;;18.79;31.59
74631;BME280;63138;55.082;38.804;2023-05-14T12:30:05;100458.63;;;18.64;31.58
74631;BME280;63138;55.082;38.804;2023-05-14T12:32:36;100447.31;;;18.27;32.46
74631;BME280;63138;55.082;38.804;2023-05-14T12:35:04;100449.84;;;18.29;32.69
74631;BME280;63138;55.082;38.804;2023-05-14T12:37:32;100442.69;;;18.28;32.94
74631;BME280;63138;55.082;38.804;2023-05-14T12:39:58;100454.34;;;18.10;33.38
74631;BME280;63138;55.082;38.804;2023-05-14T12:42:25;100450.97;;;18.08;33.64
74631;BME280;63138;55.082;38.804;2023-05-14T12:44:51;100463.84;;;17.87;33.92
74631;BME280;63138;55.082;38.804;2023-05-14T12:47:18;100450.50;;;17.84;34.08
74631;BME280;63138;55.082;38.804;2023-05-14T12:49:44;100460.88;;;17.82;34.01
74631;BME280;63138;55.082;38.804;2023-05-14T12:52:10;100459.00;;;17.89;34.16
74631;BME280;63138;55.082;38.804;2023-05-14T12:54:36;100463.41;;;17.70;34.22
74631;BME280;63138;55.082;38.804;2023-05-14T12:57:05;100461.72;;;17.83;33.88
74631;BME280;63138;55.082;38.804;2023-05-14T12:59:30;100462.56;;;17.83;33.87
74631;BME280;63138;55.082;38.804;2023-05-14T13:01:56;100458.75;;;17.71;33.65
74631;BME280;63138;55.082;38.804;2023-05-14T13:04:22;100457.91;;;17.64;34.14
74631;BME280;63138;55.082;38.804;2023-05-14T13:06:49;100455.38;;;17.49;34.57